ARG1431 SAVC-SAZN
Flight info
| Callsign | ARG1431 |
|---|---|
| Flight time | N/A |
| Altitude | FL380 |
| Route | PUBL2G PUBLO UT105 SIMOT ILTOS |
| Aircraft | B737/M-SDE2E3FGHIRWXY/LB1 |
Departure
| Time | 2026-05-04 14:22 |
|---|---|
| Airport | General Enrique Mosconi International Airport (SAVC) |
Arrival
| Time | N/A |
|---|---|
| Airport | Presidente Perón International Airport (SAZN) |
| Time | Latitude | Longitude | Altitude | Speed | Heading |
|---|---|---|---|---|---|
| 2026-05-04 13:44 | -45.78955 | -67.46864 | 125 ft | 0 kts | 206° |
| 2026-05-04 14:09 | -45.78951 | -67.46860 | 125 ft | 2 kts | 206° |
| 2026-05-04 14:10 | -45.78929 | -67.46845 | 124 ft | 2 kts | 185° |
| 2026-05-04 14:10 | -45.78914 | -67.46850 | 124 ft | 2 kts | 141° |
| 2026-05-04 14:10 | -45.78906 | -67.46868 | 124 ft | 2 kts | 99° |
| 2026-05-04 14:10 | -45.78906 | -67.46878 | 124 ft | 1 kts | 82° |
| 2026-05-04 14:11 | -45.78906 | -67.46883 | 125 ft | 0 kts | 87° |
| 2026-05-04 14:12 | -45.78906 | -67.46882 | 124 ft | 1 kts | 89° |
| 2026-05-04 14:12 | -45.78891 | -67.46804 | 123 ft | 7 kts | 34° |
| 2026-05-04 14:13 | -45.78842 | -67.46796 | 122 ft | 7 kts | 359° |
| 2026-05-04 14:13 | -45.78790 | -67.46798 | 121 ft | 8 kts | 2° |
| 2026-05-04 14:13 | -45.78752 | -67.46747 | 119 ft | 9 kts | 75° |
| 2026-05-04 14:13 | -45.78736 | -67.46634 | 114 ft | 13 kts | 78° |
| 2026-05-04 14:14 | -45.78727 | -67.46571 | 112 ft | 7 kts | 79° |
| 2026-05-04 14:14 | -45.78703 | -67.46378 | 106 ft | 13 kts | 79° |
| 2026-05-04 14:14 | -45.78683 | -67.46228 | 101 ft | 16 kts | 79° |
| 2026-05-04 14:15 | -45.78648 | -67.45970 | 95 ft | 14 kts | 79° |
| 2026-05-04 14:15 | -45.78612 | -67.45691 | 87 ft | 13 kts | 79° |
| 2026-05-04 14:16 | -45.78580 | -67.45453 | 78 ft | 11 kts | 78° |
| 2026-05-04 14:16 | -45.78562 | -67.45326 | 73 ft | 15 kts | 78° |
| 2026-05-04 14:17 | -45.78523 | -67.45026 | 64 ft | 13 kts | 79° |
| 2026-05-04 14:17 | -45.78505 | -67.44911 | 61 ft | 9 kts | 64° |
| 2026-05-04 14:17 | -45.78418 | -67.44839 | 58 ft | 0 kts | 20° |
| 2026-05-04 14:20 | -45.78412 | -67.44836 | 58 ft | 3 kts | 19° |
| 2026-05-04 14:20 | -45.78385 | -67.44824 | 57 ft | 5 kts | 13° |
| 2026-05-04 14:20 | -45.78344 | -67.44814 | 56 ft | 7 kts | 9° |
| 2026-05-04 14:21 | -45.78297 | -67.44825 | 57 ft | 3 kts | 271° |
| 2026-05-04 14:21 | -45.78315 | -67.44977 | 62 ft | 45 kts | 260° |
| 2026-05-04 14:21 | -45.78414 | -67.45745 | 85 ft | 110 kts | 258° |
| 2026-05-04 14:21 | -45.78574 | -67.47071 | 205 ft | 154 kts | 263° |
| 2026-05-04 14:22 | -45.78767 | -67.48602 | 774 ft | 165 kts | 262° |
| 2026-05-04 14:22 | -45.79084 | -67.50185 | 1501 ft | 171 kts | 249° |
| 2026-05-04 14:22 | -45.79659 | -67.51708 | 2062 ft | 182 kts | 243° |
| 2026-05-04 14:22 | -45.80300 | -67.53341 | 2584 ft | 194 kts | 245° |
| 2026-05-04 14:23 | -45.81519 | -67.56735 | 4069 ft | 196 kts | 246° |
| 2026-05-04 14:23 | -45.82109 | -67.58486 | 4818 ft | 198 kts | 245° |
| 2026-05-04 14:23 | -45.82679 | -67.60239 | 5622 ft | 196 kts | 249° |
| 2026-05-04 14:24 | -45.82979 | -67.62078 | 6484 ft | 193 kts | 263° |
| 2026-05-04 14:24 | -45.82929 | -67.64006 | 7142 ft | 201 kts | 273° |
| 2026-05-04 14:24 | -45.82620 | -67.66010 | 7843 ft | 210 kts | 282° |
| 2026-05-04 14:24 | -45.81969 | -67.67913 | 8595 ft | 221 kts | 297° |
| 2026-05-04 14:25 | -45.80942 | -67.69598 | 9268 ft | 235 kts | 309° |
| 2026-05-04 14:25 | -45.77982 | -67.71876 | 10815 ft | 258 kts | 338° |
| 2026-05-04 14:25 | -45.76242 | -67.72411 | 11640 ft | 261 kts | 341° |
| 2026-05-04 14:26 | -45.74470 | -67.72917 | 12438 ft | 263 kts | 341° |
| 2026-05-04 14:26 | -45.72668 | -67.73452 | 13242 ft | 266 kts | 342° |
| 2026-05-04 14:26 | -45.70830 | -67.73780 | 14051 ft | 273 kts | 351° |
| 2026-05-04 14:26 | -45.68885 | -67.73805 | 14571 ft | 290 kts | 355° |
| 2026-05-04 14:27 | -45.66832 | -67.73710 | 15136 ft | 303 kts | 356° |
| 2026-05-04 14:27 | -45.64681 | -67.73612 | 15643 ft | 317 kts | 355° |
| 2026-05-04 14:27 | -45.62438 | -67.73540 | 16172 ft | 330 kts | 355° |
| 2026-05-04 14:27 | -45.60097 | -67.73486 | 16622 ft | 345 kts | 355° |
| 2026-05-04 14:28 | -45.57645 | -67.73440 | 17158 ft | 357 kts | 355° |
| 2026-05-04 14:28 | -45.55132 | -67.73393 | 17707 ft | 368 kts | 355° |
| 2026-05-04 14:28 | -45.52584 | -67.73341 | 18572 ft | 369 kts | 355° |
| 2026-05-04 14:28 | -45.50044 | -67.73284 | 19479 ft | 368 kts | 354° |
| 2026-05-04 14:29 | -45.44900 | -67.73177 | 20966 ft | 373 kts | 353° |
| 2026-05-04 14:29 | -45.39671 | -67.73074 | 22297 ft | 379 kts | 352° |
| 2026-05-04 14:30 | -45.37044 | -67.73023 | 23019 ft | 378 kts | 352° |
| 2026-05-04 14:30 | -45.34434 | -67.72968 | 23677 ft | 378 kts | 351° |
| 2026-05-04 14:30 | -45.29126 | -67.72869 | 24709 ft | 385 kts | 352° |
| 2026-05-04 14:31 | -45.26464 | -67.72813 | 25337 ft | 386 kts | 351° |
| 2026-05-04 14:31 | -45.20985 | -67.72727 | 26116 ft | 397 kts | 351° |
| 2026-05-04 14:32 | -45.15463 | -67.72621 | 27107 ft | 402 kts | 351° |
| 2026-05-04 14:32 | -45.12668 | -67.72561 | 27582 ft | 405 kts | 351° |
| 2026-05-04 14:32 | -45.09860 | -67.72500 | 28141 ft | 405 kts | 350° |
| 2026-05-04 14:32 | -45.07030 | -67.72443 | 28463 ft | 410 kts | 350° |
| 2026-05-04 14:33 | -45.04167 | -67.72385 | 28808 ft | 415 kts | 351° |
| 2026-05-04 14:33 | -45.01274 | -67.72324 | 29334 ft | 415 kts | 350° |
| 2026-05-04 14:33 | -44.98385 | -67.72265 | 29804 ft | 417 kts | 350° |
| 2026-05-04 14:33 | -44.95482 | -67.72209 | 30087 ft | 422 kts | 350° |
| 2026-05-04 14:34 | -44.92537 | -67.72155 | 30335 ft | 428 kts | 349° |
| 2026-05-04 14:34 | -44.89559 | -67.72100 | 30789 ft | 428 kts | 349° |
| 2026-05-04 14:34 | -44.86602 | -67.72192 | 31158 ft | 425 kts | 346° |
| 2026-05-04 14:34 | -44.83697 | -67.72468 | 31787 ft | 418 kts | 344° |
| 2026-05-04 14:35 | -44.80790 | -67.72838 | 32250 ft | 416 kts | 343° |
| 2026-05-04 14:35 | -44.77934 | -67.73232 | 32783 ft | 413 kts | 343° |
| 2026-05-04 14:35 | -44.75105 | -67.73624 | 33217 ft | 412 kts | 342° |
| 2026-05-04 14:35 | -44.72259 | -67.74013 | 33511 ft | 414 kts | 342° |
| 2026-05-04 14:36 | -44.69386 | -67.74398 | 33823 ft | 416 kts | 343° |
| 2026-05-04 14:36 | -44.66525 | -67.74766 | 34257 ft | 415 kts | 343° |
| 2026-05-04 14:36 | -44.63651 | -67.75128 | 34581 ft | 416 kts | 343° |
| 2026-05-04 14:36 | -44.60765 | -67.75484 | 34897 ft | 414 kts | 343° |
| 2026-05-04 14:37 | -44.57911 | -67.75831 | 35261 ft | 415 kts | 343° |
| 2026-05-04 14:37 | -44.52185 | -67.76533 | 35568 ft | 417 kts | 343° |
| 2026-05-04 14:37 | -44.49309 | -67.76880 | 35810 ft | 416 kts | 343° |
| 2026-05-04 14:38 | -44.46428 | -67.77229 | 36039 ft | 417 kts | 343° |
| 2026-05-04 14:38 | -44.43545 | -67.77578 | 36269 ft | 418 kts | 342° |
| 2026-05-04 14:38 | -44.40619 | -67.77933 | 36524 ft | 420 kts | 342° |
| 2026-05-04 14:38 | -44.37729 | -67.78280 | 36932 ft | 417 kts | 342° |
| 2026-05-04 14:39 | -44.34859 | -67.78624 | 37232 ft | 418 kts | 342° |
| 2026-05-04 14:39 | -44.31976 | -67.78972 | 37533 ft | 417 kts | 342° |
| 2026-05-04 14:39 | -44.29087 | -67.79320 | 37586 ft | 418 kts | 342° |
| 2026-05-04 14:40 | -44.20399 | -67.80361 | 37585 ft | 417 kts | 342° |
| 2026-05-04 14:40 | -44.14624 | -67.81006 | 37616 ft | 421 kts | 344° |
| 2026-05-04 14:41 | -44.11682 | -67.80973 | 37627 ft | 432 kts | 352° |
| 2026-05-04 14:41 | -44.08674 | -67.80177 | 37609 ft | 453 kts | 4° |
| 2026-05-04 14:41 | -44.02722 | -67.76856 | 37604 ft | 469 kts | 12° |
| 2026-05-04 14:42 | -43.96794 | -67.72934 | 37608 ft | 473 kts | 14° |
| 2026-05-04 14:42 | -43.90871 | -67.68966 | 37616 ft | 475 kts | 13° |
| 2026-05-04 14:43 | -43.84964 | -67.65070 | 37627 ft | 470 kts | 12° |
| 2026-05-04 14:43 | -43.78923 | -67.62341 | 37627 ft | 435 kts | 353° |
| 2026-05-04 14:44 | -43.75965 | -67.62253 | 37617 ft | 421 kts | 344° |
| 2026-05-04 14:44 | -43.73073 | -67.62525 | 37614 ft | 417 kts | 341° |
| 2026-05-04 14:44 | -43.67326 | -67.63360 | 37594 ft | 416 kts | 340° |
| 2026-05-04 14:45 | -43.61603 | -67.64196 | 37625 ft | 417 kts | 341° |
| 2026-05-04 14:45 | -43.55794 | -67.64978 | 37667 ft | 418 kts | 341° |
| 2026-05-04 14:46 | -43.50029 | -67.65694 | 37619 ft | 418 kts | 341° |
| 2026-05-04 14:46 | -43.44277 | -67.66388 | 37629 ft | 414 kts | 341° |
| 2026-05-04 14:47 | -43.38506 | -67.67091 | 37627 ft | 420 kts | 341° |
| 2026-05-04 14:47 | -43.32731 | -67.67787 | 37635 ft | 416 kts | 341° |
| 2026-05-04 14:48 | -43.27003 | -67.68471 | 37616 ft | 416 kts | 341° |
| 2026-05-04 14:48 | -43.21222 | -67.69170 | 37637 ft | 420 kts | 341° |
| 2026-05-04 14:49 | -43.15403 | -67.69863 | 37629 ft | 416 kts | 341° |
| 2026-05-04 14:49 | -43.09667 | -67.70537 | 37674 ft | 415 kts | 340° |
| 2026-05-04 14:50 | -43.03909 | -67.71225 | 37644 ft | 415 kts | 340° |
| 2026-05-04 14:50 | -42.98142 | -67.71913 | 37646 ft | 418 kts | 340° |
| 2026-05-04 14:51 | -42.92367 | -67.72600 | 37661 ft | 419 kts | 340° |
| 2026-05-04 14:51 | -42.86587 | -67.73282 | 37689 ft | 419 kts | 340° |
| 2026-05-04 14:52 | -42.80795 | -67.73964 | 37673 ft | 422 kts | 340° |
| 2026-05-04 14:52 | -42.74982 | -67.74639 | 37686 ft | 414 kts | 340° |
| 2026-05-04 14:53 | -42.69248 | -67.75312 | 37675 ft | 418 kts | 339° |
| 2026-05-04 14:53 | -42.63452 | -67.76006 | 37671 ft | 419 kts | 340° |
| 2026-05-04 14:54 | -42.57655 | -67.76681 | 37680 ft | 416 kts | 339° |
| 2026-05-04 14:54 | -42.51850 | -67.77369 | 37676 ft | 424 kts | 339° |
| 2026-05-04 14:55 | -42.46073 | -67.78031 | 37693 ft | 417 kts | 339° |
| 2026-05-04 14:55 | -42.40257 | -67.78719 | 37687 ft | 426 kts | 339° |
| 2026-05-04 14:56 | -42.34331 | -67.79422 | 37697 ft | 425 kts | 339° |
| 2026-05-04 14:56 | -42.28537 | -67.80102 | 37694 ft | 415 kts | 338° |
| 2026-05-04 14:57 | -42.22750 | -67.80817 | 37689 ft | 421 kts | 339° |
| 2026-05-04 14:57 | -42.16885 | -67.81541 | 37700 ft | 426 kts | 338° |
| 2026-05-04 14:58 | -42.10996 | -67.82264 | 37701 ft | 424 kts | 338° |
| 2026-05-04 14:58 | -42.05125 | -67.82967 | 37699 ft | 423 kts | 339° |
| 2026-05-04 14:59 | -41.99310 | -67.83657 | 37728 ft | 424 kts | 338° |
| 2026-05-04 15:00 | -41.90531 | -67.84719 | 37730 ft | 424 kts | 338° |
| 2026-05-04 15:00 | -41.84608 | -67.85448 | 37729 ft | 427 kts | 338° |
| 2026-05-04 15:01 | -41.75821 | -67.86475 | 37744 ft | 423 kts | 338° |
| 2026-05-04 15:01 | -41.69958 | -67.87186 | 37747 ft | 426 kts | 338° |
| 2026-05-04 15:02 | -41.65995 | -67.87668 | 37750 ft | 430 kts | 339° |